Franklin, VA

9:03 PM EDT on April 24, 2018 (GMT -0400)
Franklin Municipal-Rose

Weather History for KFKN - October, 2011

Change the Weather History Date:

Thursday, October 6, 2011

  Actual Average (KSFQ) Record (KSFQ)
Temperature  
Mean Temperature 63 °F -  
Max Temperature 75 °F 74 °F 98 °F (1954)
Min Temperature 51 °F 52 °F 37 °F (1965)
Degree Days  
Heating Degree Days 2    
Growing Degree Days 13 (Base 50)    
Moisture  
Dew Point 53 °F    
Average Humidity 78    
Maximum Humidity 100    
Minimum Humidity 41    
Precipitation  
Precipitation 0.00 in - - ()
Sea Level Pressure  
Sea Level Pressure 30.31 in    
Wind  
Wind Speed 2 mph (ENE)    
Max Wind Speed 14 mph    
Max Gust Speed 18 mph    
Visibility 10 miles    
Events      
Averages and records for this station are not official NWS values.
T = Trace of Precipitation, MM = Missing Value Source: NWS Daily Summary

Daily Weather History Graph

Daily Weather History Graph

Search for Another Location

Airport or City:

Astronomy

Oct. 06, 2011 Rise Set
Actual Time 7:06 AM EDT 6:44 PM EDT
Civil Twilight 6:40 AM EDT 7:09 PM EDT
Nautical Twilight 6:11 AM EDT 7:39 PM EDT
Astronomical Twilight 5:40 AM EDT 8:09 PM EDT
Moon 3:49 PM EDT (10/6) 2:00 AM EDT (10/6)
Length of Visible Light 12h 28m
Length of Day
11h 37m
Waxing Gibbous, 75% of the Moon is Illuminated
Oct 6
Waxing Gibbous
Oct 11
Full
Oct 19
Last Quarter
Oct 26
New
Nov 2
First Quarter

Hourly Weather History & Observations

Time (EDT) Temp. Dew Point Humidity Pressure Visibility Wind Dir Wind Speed Gust Speed Precip Events Conditions
12:15 AM 53.6 °F 53.6 °F 100% 30.24 in 10.0 mi Calm Calm - N/A   Clear
12:35 AM 53.6 °F 53.6 °F 100% 30.24 in 10.0 mi Calm Calm - N/A   Clear
1:15 AM 53.6 °F 53.6 °F 100% 30.25 in 10.0 mi Calm Calm - N/A   Clear
1:35 AM 51.8 °F 51.8 °F 100% 30.25 in 10.0 mi Calm Calm - N/A   Clear
2:15 AM 51.8 °F 51.8 °F 100% 30.26 in 10.0 mi Calm Calm - N/A   Clear
2:35 AM 51.8 °F 51.8 °F 100% 30.26 in 10.0 mi Calm Calm - N/A   Clear
2:55 AM 51.8 °F 51.8 °F 100% 30.25 in 10.0 mi Calm Calm - N/A   Clear
3:15 AM 51.8 °F 51.8 °F 100% 30.25 in 10.0 mi Calm Calm - N/A   Clear
3:35 AM 51.8 °F 51.8 °F 100% 30.25 in 10.0 mi Calm Calm - N/A   Clear
3:55 AM 51.8 °F 51.8 °F 100% 30.25 in 10.0 mi Calm Calm - N/A   Clear
4:15 AM 51.8 °F 51.8 °F 100% 30.26 in 10.0 mi Calm Calm - N/A   Clear
4:35 AM 51.8 °F 51.8 °F 100% 30.26 in 10.0 mi Calm Calm - N/A   Clear
4:55 AM 51.8 °F 51.8 °F 100% 30.26 in 10.0 mi Calm Calm - N/A   Clear
5:35 AM 51.8 °F 51.8 °F 100% 30.28 in 10.0 mi Calm Calm - N/A   Clear
5:55 AM 51.8 °F 51.8 °F 100% 30.28 in 10.0 mi Calm Calm - N/A   Clear
6:15 AM 51.8 °F 51.8 °F 100% 30.28 in 4.0 mi Calm Calm - N/A   Clear
6:35 AM 51.8 °F 51.8 °F 100% 30.29 in 10.0 mi Calm Calm - N/A   Clear
6:55 AM 51.8 °F 51.8 °F 100% 30.30 in 10.0 mi Calm Calm - N/A   Clear
7:15 AM 51.8 °F 51.8 °F 100% 30.30 in 10.0 mi Calm Calm - N/A   Clear
7:35 AM 51.8 °F 51.8 °F 100% 30.31 in 10.0 mi Calm Calm - N/A   Clear
7:55 AM 53.6 °F 53.6 °F 100% 30.31 in 10.0 mi Calm Calm - N/A   Clear
8:15 AM 55.4 °F 55.4 °F 100% 30.32 in 10.0 mi Calm Calm - N/A   Clear
8:35 AM 57.2 °F 57.2 °F 100% 30.32 in 10.0 mi North 3.5 mph - N/A   Clear
8:55 AM 60.8 °F 57.2 °F 88% 30.33 in 10.0 mi North 4.6 mph - N/A   Clear
9:15 AM 62.6 °F 59.0 °F 88% 30.34 in 10.0 mi North 5.8 mph - N/A   Clear
9:55 AM 64.4 °F 60.8 °F 88% 30.34 in 10.0 mi NNE 8.1 mph - N/A   Clear
10:15 AM 66.2 °F 60.8 °F 83% 30.34 in 10.0 mi NNE 8.1 mph - N/A   Clear
10:35 AM 68.0 °F 60.8 °F 78% 30.35 in 10.0 mi NE 6.9 mph - N/A   Clear
10:55 AM 69.8 °F 60.8 °F 73% 30.34 in 10.0 mi ENE 9.2 mph - N/A   Clear
11:35 AM 71.6 °F 59.0 °F 64% 30.35 in 10.0 mi ENE 9.2 mph - N/A   Scattered Clouds
11:55 AM 73.4 °F 57.2 °F 57% 30.35 in 10.0 mi NE 9.2 mph - N/A   Scattered Clouds
12:15 PM 73.4 °F 55.4 °F 53% 30.35 in 10.0 mi ENE 6.9 mph 16.1 mph N/A   Scattered Clouds
12:35 PM 73.4 °F 55.4 °F 53% 30.35 in 10.0 mi ENE 11.5 mph 16.1 mph N/A   Scattered Clouds
12:55 PM 75.2 °F 53.6 °F 47% 30.35 in 10.0 mi East 11.5 mph - N/A   Scattered Clouds
1:15 PM 73.4 °F 53.6 °F 50% 30.34 in 10.0 mi NE 13.8 mph 18.4 mph N/A   Scattered Clouds
1:35 PM 73.4 °F 53.6 °F 50% 30.34 in 10.0 mi ENE 6.9 mph - N/A   Scattered Clouds
1:55 PM 73.4 °F 53.6 °F 50% 30.33 in 10.0 mi NE 10.4 mph - N/A   Scattered Clouds
2:15 PM 73.4 °F 53.6 °F 50% 30.33 in 10.0 mi NE 9.2 mph - N/A   Scattered Clouds
2:35 PM 73.4 °F 53.6 °F 50% 30.33 in 10.0 mi NE 6.9 mph - N/A   Scattered Clouds
2:55 PM 73.4 °F 51.8 °F 47% 30.33 in 10.0 mi East 6.9 mph - N/A   Scattered Clouds
3:15 PM 73.4 °F 51.8 °F 47% 30.32 in 10.0 mi ENE 12.7 mph 16.1 mph N/A   Clear
3:35 PM 73.4 °F 51.8 °F 47% 30.32 in 10.0 mi NNE 6.9 mph - N/A   Clear
4:15 PM 73.4 °F 48.2 °F 41% 30.33 in 10.0 mi East 6.9 mph - N/A   Clear
4:35 PM 71.6 °F 48.2 °F 43% 30.33 in 10.0 mi East 6.9 mph - N/A   Clear
4:55 PM 71.6 °F 48.2 °F 43% 30.33 in 10.0 mi East 6.9 mph - N/A   Clear
5:15 PM 71.6 °F 51.8 °F 50% 30.33 in 10.0 mi East 9.2 mph - N/A   Clear
5:35 PM 69.8 °F 50.0 °F 49% 30.33 in 10.0 mi East 6.9 mph - N/A   Clear
6:15 PM 66.2 °F 51.8 °F 60% 30.33 in 10.0 mi East 4.6 mph - N/A   Clear
6:35 PM 64.4 °F 51.8 °F 64% 30.33 in 10.0 mi East 3.5 mph - N/A   Clear
6:55 PM 62.6 °F 51.8 °F 68% 30.34 in 10.0 mi Calm Calm - N/A   Clear
7:15 PM 60.8 °F 53.6 °F 77% 30.34 in 10.0 mi Calm Calm - N/A   Clear
7:35 PM 57.2 °F 53.6 °F 88% 30.34 in 10.0 mi Calm Calm - N/A   Clear
7:55 PM 57.2 °F 53.6 °F 88% 30.34 in 10.0 mi Calm Calm - N/A   Clear
8:15 PM 55.4 °F 53.6 °F 94% 30.35 in 10.0 mi Calm Calm - N/A   Clear
8:35 PM 55.4 °F 53.6 °F 94% 30.35 in 10.0 mi Calm Calm - N/A   Clear
8:55 PM 53.6 °F 53.6 °F 100% 30.36 in 10.0 mi Calm Calm - N/A   Clear
9:15 PM 53.6 °F 51.8 °F 94% 30.36 in 10.0 mi Calm Calm - N/A   Clear
9:35 PM 51.8 °F 51.8 °F 100% 30.36 in 10.0 mi Calm Calm - N/A   Clear
9:55 PM 53.6 °F 51.8 °F 94% 30.36 in 10.0 mi Calm Calm - N/A   Clear
10:15 PM 51.8 °F 51.8 °F 100% 30.37 in 10.0 mi Calm Calm - N/A   Clear
10:35 PM 51.8 °F 51.8 °F 100% 30.37 in 10.0 mi Calm Calm - N/A   Clear
10:55 PM 50.0 °F 50.0 °F 100% 30.38 in 10.0 mi Calm Calm - N/A   Clear
11:15 PM 50.0 °F 50.0 °F 100% 30.38 in 10.0 mi Calm Calm - N/A   Clear
11:35 PM 48.2 °F 48.2 °F 100% 30.38 in 10.0 mi Calm Calm - N/A   Clear
11:55 PM 48.2 °F 48.2 °F 100% 30.38 in 10.0 mi Calm Calm - N/A   Clear